Time;durP1;ratioP1;P1;durP2;ratioP2;P2;SDS_P1;SDS_P2;PMS_P1;PMS_P2;Temp;Humidity;BMP_temperature;BMP_pressure;BME280_temperature;BME280_humidity;BME280_pressure;Samples;Min_cycle;Max_cycle;Signal;HPM_P1;HPM_P2
2021/08/18 00:00:09;;;;;;;19.33;10.30;;;16.00;99.90;;;;;;4997635;28;20580;-71
2021/08/18 00:02:38;;;;;;;17.47;10.67;;;16.00;99.90;;;;;;5002452;28;20537;-72
2021/08/18 00:05:06;;;;;;;19.30;8.93;;;16.10;99.90;;;;;;4992097;28;20453;-72
2021/08/18 00:07:33;;;;;;;21.13;11.13;;;16.00;99.90;;;;;;4993638;28;20540;-71
2021/08/18 00:10:00;;;;;;;14.13;9.63;;;16.10;99.90;;;;;;4999307;28;20600;-71
2021/08/18 00:12:27;;;;;;;20.90;11.90;;;16.00;99.90;;;;;;4997040;28;20540;-71
2021/08/18 00:14:54;;;;;;;15.97;10.43;;;16.10;99.90;;;;;;4999986;28;20461;-71
2021/08/18 00:17:21;;;;;;;22.90;11.10;;;16.00;99.90;;;;;;4994153;28;20446;-69
2021/08/18 00:19:49;;;;;;;15.47;10.03;;;16.10;99.90;;;;;;4999813;28;20590;-75
2021/08/18 00:22:16;;;;;;;15.70;9.10;;;16.00;99.90;;;;;;4999510;28;20576;-71
2021/08/18 00:24:43;;;;;;;16.77;9.73;;;16.00;99.90;;;;;;5002805;28;20548;-69
2021/08/18 00:27:10;;;;;;;16.40;10.07;;;16.00;99.90;;;;;;4999257;28;20893;-70
2021/08/18 00:29:37;;;;;;;20.80;12.53;;;15.90;99.90;;;;;;4995438;28;20537;-70
2021/08/18 00:32:05;;;;;;;20.77;9.27;;;16.00;99.90;;;;;;4998557;28;20535;-71
2021/08/18 00:34:32;;;;;;;16.33;9.10;;;16.00;99.90;;;;;;5002031;28;20540;-72
2021/08/18 00:37:00;;;;;;;17.87;8.93;;;15.90;99.90;;;;;;5000018;28;20548;-68
2021/08/18 00:39:27;;;;;;;19.33;11.27;;;16.00;99.90;;;;;;4998769;28;20600;-71
2021/08/18 00:41:55;;;;;;;21.50;9.93;;;16.00;99.90;;;;;;5002917;28;20465;-71
2021/08/18 00:44:22;;;;;;;19.87;8.70;;;16.00;99.90;;;;;;4999337;28;20602;-72
2021/08/18 00:46:50;;;;;;;14.43;7.53;;;15.90;99.90;;;;;;5000442;28;20884;-68
2021/08/18 00:49:19;;;;;;;16.37;9.00;;;16.00;99.90;;;;;;4996980;28;20549;-68
2021/08/18 00:51:46;;;;;;;12.30;8.40;;;15.90;99.90;;;;;;4995628;28;20472;-73
2021/08/18 00:54:15;;;;;;;13.57;7.50;;;16.00;99.90;;;;;;5000206;28;20600;-70
2021/08/18 00:56:42;;;;;;;10.70;6.90;;;16.00;99.90;;;;;;4991105;28;20454;-68
2021/08/18 00:59:10;;;;;;;12.13;7.50;;;16.00;99.90;;;;;;5003322;28;21005;-72
2021/08/18 01:01:37;;;;;;;16.53;8.90;;;16.00;99.90;;;;;;4999063;28;20497;-71
2021/08/18 01:04:04;;;;;;;12.07;6.87;;;16.00;99.90;;;;;;4994690;28;20917;-72
2021/08/18 01:06:32;;;;;;;12.87;7.53;;;16.00;99.90;;;;;;4995308;28;20453;-71
2021/08/18 01:08:59;;;;;;;9.27;6.03;;;16.00;99.90;;;;;;4997263;28;20560;-69
2021/08/18 01:11:28;;;;;;;12.37;7.63;;;16.00;99.90;;;;;;5005278;28;20552;-70
2021/08/18 01:13:55;;;;;;;13.43;6.70;;;15.90;99.90;;;;;;5001073;28;20461;-71
2021/08/18 01:16:22;;;;;;;11.43;8.07;;;16.00;99.90;;;;;;4997695;28;20457;-71
2021/08/18 01:18:49;;;;;;;15.63;9.07;;;15.90;99.90;;;;;;4996672;28;20568;-70
2021/08/18 01:21:15;;;;;;;11.50;7.57;;;16.00;99.90;;;;;;4996943;28;20573;-70
2021/08/18 01:23:42;;;;;;;13.83;7.43;;;16.00;99.90;;;;;;4998093;28;20492;-71
2021/08/18 01:26:10;;;;;;;16.37;6.73;;;16.00;99.90;;;;;;4998544;28;20549;-71
2021/08/18 01:28:38;;;;;;;11.93;7.47;;;16.10;99.90;;;;;;4999993;28;20556;-69
2021/08/18 01:31:05;;;;;;;12.77;7.63;;;16.00;99.90;;;;;;4998354;28;21096;-69
2021/08/18 01:33:32;;;;;;;12.13;7.53;;;16.10;99.90;;;;;;4993506;28;22405;-71
2021/08/18 01:35:59;;;;;;;11.30;7.13;;;16.10;99.90;;;;;;5002230;28;20593;-69
2021/08/18 01:38:26;;;;;;;11.60;7.77;;;16.10;99.90;;;;;;4993818;28;21484;-69
2021/08/18 01:40:53;;;;;;;13.63;6.83;;;16.20;99.90;;;;;;4998386;28;20488;-70
2021/08/18 01:43:22;;;;;;;11.43;6.43;;;16.10;99.90;;;;;;5000714;28;20544;-70
2021/08/18 01:45:52;;;;;;;10.67;6.60;;;16.10;99.90;;;;;;5000445;28;20493;-71
2021/08/18 01:48:21;;;;;;;15.20;7.00;;;16.10;99.90;;;;;;4995886;28;20490;-72
2021/08/18 01:50:50;;;;;;;15.27;8.20;;;16.20;99.90;;;;;;4999885;28;20505;-70
2021/08/18 01:53:19;;;;;;;10.83;6.70;;;16.10;99.90;;;;;;5001818;28;20964;-68
2021/08/18 01:55:46;;;;;;;9.63;5.10;;;16.10;99.90;;;;;;4993916;28;20458;-68
2021/08/18 01:58:13;;;;;;;16.37;8.57;;;16.20;99.90;;;;;;4996885;28;20487;-71
2021/08/18 02:00:41;;;;;;;17.17;10.47;;;16.10;99.90;;;;;;4998254;28;20485;-68
2021/08/18 02:03:09;;;;;;;15.60;7.60;;;16.10;99.90;;;;;;4993397;28;20544;-71
2021/08/18 02:05:36;;;;;;;14.97;7.77;;;16.00;99.90;;;;;;4997807;28;20531;-73
2021/08/18 02:08:04;;;;;;;15.70;8.17;;;16.10;99.90;;;;;;5005199;28;20473;-71
2021/08/18 02:10:31;;;;;;;16.37;10.20;;;16.10;99.90;;;;;;4999592;28;20509;-69
2021/08/18 02:12:58;;;;;;;21.63;9.47;;;16.10;99.90;;;;;;4999639;28;20550;-69
2021/08/18 02:15:27;;;;;;;16.77;9.00;;;16.10;99.90;;;;;;4994538;28;20901;-71
2021/08/18 02:17:55;;;;;;;19.87;10.87;;;16.10;99.90;;;;;;4996914;28;20839;-71
2021/08/18 02:20:25;;;;;;;15.83;9.70;;;16.10;99.90;;;;;;4995476;28;20568;-69
2021/08/18 02:22:53;;;;;;;15.77;7.47;;;16.10;99.90;;;;;;5002058;28;20659;-70
2021/08/18 02:25:20;;;;;;;12.07;6.33;;;16.10;99.90;;;;;;4998665;28;20461;-71
2021/08/18 02:27:48;;;;;;;14.60;9.53;;;16.10;99.90;;;;;;4996097;28;20441;-70
2021/08/18 02:30:17;;;;;;;10.30;5.93;;;16.00;99.90;;;;;;5000252;28;20568;-72
2021/08/18 02:32:44;;;;;;;12.20;5.37;;;15.90;99.90;;;;;;5005579;28;20535;-67
2021/08/18 02:35:13;;;;;;;10.03;6.03;;;15.90;99.90;;;;;;5002128;28;20548;-71
2021/08/18 02:37:42;;;;;;;7.43;5.93;;;15.80;99.90;;;;;;5000221;28;21045;-70
2021/08/18 02:40:11;;;;;;;6.47;4.47;;;15.70;99.90;;;;;;5009345;28;20580;-73
2021/08/18 02:42:38;;;;;;;8.33;3.60;;;15.70;99.90;;;;;;4999498;28;20516;-71
2021/08/18 02:45:07;;;;;;;4.93;3.60;;;15.70;99.90;;;;;;5007464;28;20465;-72
2021/08/18 02:47:34;;;;;;;12.73;4.00;;;15.60;99.90;;;;;;5004118;28;20850;-68
2021/08/18 02:50:01;;;;;;;5.97;4.00;;;15.70;99.90;;;;;;4993939;28;20545;-68
2021/08/18 02:52:28;;;;;;;4.00;3.20;;;15.70;99.90;;;;;;5008621;28;20871;-70
2021/08/18 02:54:56;;;;;;;8.00;4.37;;;15.70;99.90;;;;;;5001243;28;20549;-70
2021/08/18 02:57:23;;;;;;;10.30;4.40;;;15.80;99.90;;;;;;5000048;28;20885;-71
2021/08/18 02:59:52;;;;;;;8.17;5.97;;;15.90;99.90;;;;;;4997505;28;20554;-72
2021/08/18 03:02:19;;;;;;;8.13;4.57;;;15.90;99.90;;;;;;4999101;28;20460;-70
2021/08/18 03:04:46;;;;;;;10.83;4.93;;;16.00;99.90;;;;;;4992836;28;20559;-71
2021/08/18 03:07:12;;;;;;;7.93;4.77;;;16.00;99.90;;;;;;4999307;28;20485;-70
2021/08/18 03:09:39;;;;;;;11.83;5.53;;;16.00;99.90;;;;;;4997360;28;20549;-71
2021/08/18 03:12:08;;;;;;;9.30;5.30;;;16.00;99.90;;;;;;4997699;28;20544;-71
2021/08/18 03:14:36;;;;;;;10.40;5.43;;;16.10;99.90;;;;;;4999415;28;20557;-69
2021/08/18 03:17:03;;;;;;;11.17;6.27;;;16.00;99.90;;;;;;5002968;28;20888;-70
2021/08/18 03:19:30;;;;;;;10.23;6.53;;;16.00;99.90;;;;;;4995919;28;20485;-67
2021/08/18 03:21:57;;;;;;;15.53;5.93;;;15.90;99.90;;;;;;5005282;28;20491;-69
2021/08/18 03:24:24;;;;;;;12.93;6.23;;;15.90;99.90;;;;;;5004347;28;20600;-67
2021/08/18 03:26:51;;;;;;;17.53;8.60;;;15.90;99.90;;;;;;4997178;28;21234;-69
2021/08/18 03:29:20;;;;;;;14.17;8.00;;;15.90;99.90;;;;;;5000663;28;20477;-68
2021/08/18 03:31:47;;;;;;;8.53;5.80;;;15.80;99.90;;;;;;5000313;28;20509;-69
2021/08/18 03:34:14;;;;;;;11.90;6.70;;;15.90;99.90;;;;;;4991920;28;20958;-72
2021/08/18 03:36:41;;;;;;;15.80;8.10;;;15.90;99.90;;;;;;5001292;28;20544;-70
2021/08/18 03:39:08;;;;;;;16.47;7.00;;;16.00;99.90;;;;;;5004513;28;21010;-70
2021/08/18 03:41:35;;;;;;;15.63;8.07;;;15.90;99.90;;;;;;5007240;28;20503;-68
2021/08/18 03:44:01;;;;;;;18.63;8.47;;;16.00;99.90;;;;;;4991759;28;20546;-70
2021/08/18 03:46:30;;;;;;;19.57;9.23;;;16.10;99.90;;;;;;4997978;28;20477;-70
2021/08/18 03:48:57;;;;;;;11.77;6.17;;;16.10;99.90;;;;;;5001637;28;20536;-69
2021/08/18 03:51:24;;;;;;;17.20;11.07;;;16.20;99.90;;;;;;5005641;28;20560;-70
2021/08/18 03:53:51;;;;;;;18.57;9.20;;;16.20;99.90;;;;;;4997614;28;20581;-71
2021/08/18 03:56:18;;;;;;;17.60;8.33;;;16.20;99.90;;;;;;4997237;28;20469;-70
2021/08/18 03:58:45;;;;;;;19.63;10.47;;;16.10;99.90;;;;;;4998313;28;20532;-72
2021/08/18 04:01:12;;;;;;;13.70;7.17;;;16.10;99.90;;;;;;4989992;28;20615;-73
2021/08/18 04:03:40;;;;;;;16.27;7.53;;;16.20;99.90;;;;;;4993491;28;20469;-73
2021/08/18 04:06:07;;;;;;;16.80;7.27;;;16.10;99.90;;;;;;4997341;28;20450;-71
2021/08/18 04:08:34;;;;;;;16.10;7.60;;;16.10;99.90;;;;;;4998037;28;20560;-72
2021/08/18 04:11:04;;;;;;;14.20;9.27;;;16.10;99.90;;;;;;4999065;28;20581;-69
2021/08/18 04:13:31;;;;;;;17.90;7.53;;;16.00;99.90;;;;;;5000630;28;21462;-71
2021/08/18 04:15:58;;;;;;;14.80;7.23;;;16.10;99.90;;;;;;4997103;28;20495;-70
2021/08/18 04:18:25;;;;;;;18.07;8.70;;;16.10;99.90;;;;;;4990349;28;20836;-70
2021/08/18 04:20:53;;;;;;;17.33;9.07;;;16.20;99.90;;;;;;4999561;28;20678;-70
2021/08/18 04:23:20;;;;;;;17.17;8.67;;;16.10;99.90;;;;;;4997672;28;20976;-71
2021/08/18 04:25:47;;;;;;;13.80;6.77;;;16.20;99.90;;;;;;5002431;28;20497;-71
2021/08/18 04:28:14;;;;;;;20.27;8.63;;;16.20;99.90;;;;;;5008867;28;20556;-70
2021/08/18 04:30:41;;;;;;;12.67;6.87;;;16.20;99.90;;;;;;5005672;28;20559;-70
2021/08/18 04:33:08;;;;;;;18.07;11.37;;;16.20;99.90;;;;;;4997938;28;20494;-71
2021/08/18 04:35:35;;;;;;;16.33;8.53;;;16.10;99.90;;;;;;4993725;28;20552;-73
2021/08/18 04:38:04;;;;;;;16.33;8.10;;;16.10;99.90;;;;;;5008231;28;20489;-73
2021/08/18 04:40:31;;;;;;;12.40;8.83;;;16.10;99.90;;;;;;5005071;28;20500;-69
2021/08/18 04:42:58;;;;;;;17.80;8.70;;;16.20;99.90;;;;;;4998212;28;20536;-69
2021/08/18 04:45:25;;;;;;;22.57;10.93;;;16.10;99.90;;;;;;5003021;28;20872;-70
2021/08/18 04:47:52;;;;;;;17.67;8.30;;;16.20;99.90;;;;;;5002141;28;20969;-69
2021/08/18 04:50:20;;;;;;;17.03;9.17;;;16.20;99.90;;;;;;4995843;28;20532;-73
2021/08/18 04:52:48;;;;;;;16.23;9.27;;;16.20;99.90;;;;;;5000565;28;20465;-72
2021/08/18 04:55:22;;;;;;;26.37;10.40;;;16.20;99.90;;;;;;5005392;28;20512;-70
2021/08/18 04:57:49;;;;;;;15.73;7.73;;;16.30;99.90;;;;;;5010251;28;20524;-71
2021/08/18 05:00:17;;;;;;;17.23;9.70;;;16.30;99.90;;;;;;5010156;28;20882;-71
2021/08/18 05:02:45;;;;;;;20.47;9.13;;;16.20;99.90;;;;;;5006235;28;20511;-71
2021/08/18 05:05:12;;;;;;;14.43;9.20;;;16.20;99.90;;;;;;4995598;28;20462;-71
2021/08/18 05:07:39;;;;;;;16.47;8.60;;;16.20;99.90;;;;;;5005608;28;21037;-72
2021/08/18 05:10:07;;;;;;;14.10;8.17;;;16.30;99.90;;;;;;5002677;28;20561;-72
2021/08/18 05:12:36;;;;;;;16.00;8.93;;;16.30;99.90;;;;;;4997970;28;20485;-69
2021/08/18 05:15:03;;;;;;;10.90;7.90;;;16.30;99.90;;;;;;5000715;28;20497;-70
2021/08/18 05:17:30;;;;;;;11.30;7.70;;;16.30;99.90;;;;;;4998292;28;20505;-73
2021/08/18 05:19:57;;;;;;;15.20;7.47;;;16.30;99.90;;;;;;5003638;28;20529;-71
2021/08/18 05:22:24;;;;;;;15.87;8.27;;;16.20;99.90;;;;;;4999394;28;20485;-72
2021/08/18 05:24:51;;;;;;;10.30;7.10;;;16.20;99.90;;;;;;5010033;28;20493;-71
2021/08/18 05:27:18;;;;;;;12.00;6.80;;;16.20;99.90;;;;;;5010216;28;20869;-72
2021/08/18 05:29:46;;;;;;;7.40;5.03;;;16.20;99.90;;;;;;5010266;28;20535;-71
2021/08/18 05:32:13;;;;;;;8.07;5.10;;;16.10;99.90;;;;;;5011478;28;20472;-71
2021/08/18 05:34:40;;;;;;;6.70;4.47;;;16.10;99.90;;;;;;5008366;28;20559;-70
2021/08/18 05:37:07;;;;;;;9.77;5.10;;;16.10;99.90;;;;;;5011667;28;20567;-70
2021/08/18 05:39:34;;;;;;;6.60;4.67;;;16.10;99.90;;;;;;5009521;28;20453;-69
2021/08/18 05:42:01;;;;;;;7.33;4.30;;;16.10;99.90;;;;;;5007888;28;20589;-73
2021/08/18 05:44:28;;;;;;;10.53;3.90;;;16.20;99.90;;;;;;5003713;28;21036;-70
2021/08/18 05:46:56;;;;;;;17.47;5.20;;;16.30;99.90;;;;;;5006356;28;20492;-71
2021/08/18 05:49:23;;;;;;;14.70;4.37;;;16.40;99.90;;;;;;5009354;28;20553;-69
2021/08/18 05:51:50;;;;;;;5.13;3.40;;;16.50;99.90;;;;;;4999502;28;20481;-71
2021/08/18 05:54:18;;;;;;;6.40;3.20;;;16.50;99.90;;;;;;5002330;28;20501;-71
2021/08/18 05:56:45;;;;;;;6.77;4.83;;;16.60;99.90;;;;;;5008100;28;20496;-73
2021/08/18 05:59:12;;;;;;;8.40;4.83;;;16.70;99.90;;;;;;5002260;28;20560;-73
2021/08/18 06:01:39;;;;;;;5.20;3.23;;;16.80;99.90;;;;;;4998586;28;21013;-72
2021/08/18 06:04:07;;;;;;;5.87;4.23;;;16.90;99.90;;;;;;5008069;28;20576;-69
2021/08/18 06:06:34;;;;;;;5.37;3.17;;;17.00;99.90;;;;;;4999683;28;20489;-70
2021/08/18 06:09:01;;;;;;;4.40;3.40;;;17.10;99.90;;;;;;5005864;28;20544;-70
2021/08/18 06:11:28;;;;;;;5.30;3.83;;;17.10;99.90;;;;;;4994243;28;20492;-70
2021/08/18 06:13:55;;;;;;;3.57;2.67;;;17.10;99.90;;;;;;5006573;28;20508;-70
2021/08/18 06:16:22;;;;;;;6.87;3.50;;;17.10;99.90;;;;;;5005940;28;20460;-70
2021/08/18 06:18:49;;;;;;;4.67;2.57;;;17.20;99.90;;;;;;5010120;28;20445;-70
2021/08/18 06:21:18;;;;;;;4.63;2.90;;;17.10;99.90;;;;;;5004955;28;21005;-69
2021/08/18 06:23:47;;;;;;;2.77;1.77;;;17.10;99.90;;;;;;5007144;28;20461;-71
2021/08/18 06:26:14;;;;;;;5.67;2.73;;;17.30;99.90;;;;;;5007236;28;20453;-71
2021/08/18 06:28:40;;;;;;;4.00;2.83;;;17.20;99.90;;;;;;5009125;28;20536;-70
2021/08/18 06:31:07;;;;;;;3.67;2.90;;;17.10;99.90;;;;;;5003542;28;20906;-71
2021/08/18 06:33:34;;;;;;;5.83;2.97;;;17.00;99.90;;;;;;4997197;28;20488;-69
2021/08/18 06:36:02;;;;;;;4.43;2.50;;;17.00;99.90;;;;;;5010080;28;20849;-72
2021/08/18 06:38:31;;;;;;;3.23;2.93;;;16.90;99.90;;;;;;5001790;28;20455;-71
2021/08/18 06:40:58;;;;;;;4.43;3.00;;;17.00;99.90;;;;;;5007934;28;20481;-70
2021/08/18 06:43:25;;;;;;;4.77;2.80;;;17.10;99.90;;;;;;5003381;28;20453;-70
2021/08/18 06:45:52;;;;;;;4.27;2.37;;;17.00;99.90;;;;;;5004396;28;20504;-71
2021/08/18 06:48:19;;;;;;;3.47;2.20;;;17.00;99.90;;;;;;5011941;28;20964;-70
2021/08/18 06:50:46;;;;;;;3.03;2.40;;;16.90;99.90;;;;;;5006052;28;20477;-69
2021/08/18 06:53:13;;;;;;;3.27;2.27;;;17.00;99.90;;;;;;5009033;28;20480;-69
2021/08/18 06:55:41;;;;;;;2.67;2.10;;;17.10;99.90;;;;;;5007344;28;20489;-69
2021/08/18 06:58:08;;;;;;;4.90;2.10;;;17.10;99.90;;;;;;4999513;28;20802;-69
2021/08/18 07:00:35;;;;;;;3.50;2.50;;;17.20;99.90;;;;;;5000720;28;20539;-70
2021/08/18 07:03:02;;;;;;;3.03;2.23;;;17.30;99.90;;;;;;5009276;28;20527;-69
2021/08/18 07:05:32;;;;;;;7.50;2.63;;;17.40;99.90;;;;;;5007116;28;20536;-71
2021/08/18 07:07:59;;;;;;;5.70;2.57;;;17.30;99.90;;;;;;5010037;28;20523;-70
2021/08/18 07:10:26;;;;;;;3.90;2.20;;;17.50;99.90;;;;;;4998480;28;20509;-70
2021/08/18 07:12:55;;;;;;;7.13;2.10;;;17.50;99.90;;;;;;5008245;28;20540;-70
2021/08/18 07:15:22;;;;;;;4.27;2.43;;;17.70;99.90;;;;;;5002162;28;20889;-71
2021/08/18 07:17:49;;;;;;;6.73;3.03;;;17.90;99.90;;;;;;5007165;28;20889;-69
2021/08/18 07:20:16;;;;;;;3.70;2.70;;;17.80;99.90;;;;;;5009347;28;20552;-69
2021/08/18 07:22:43;;;;;;;4.60;3.03;;;18.10;99.90;;;;;;5009625;28;20735;-68
2021/08/18 07:25:10;;;;;;;4.07;2.80;;;18.40;99.90;;;;;;5012349;28;20549;-70
2021/08/18 07:27:37;;;;;;;5.20;2.90;;;18.70;99.90;;;;;;5010040;28;20536;-70
2021/08/18 07:30:06;;;;;;;4.60;3.23;;;18.90;99.90;;;;;;5010561;28;20527;-70
2021/08/18 07:32:34;;;;;;;3.60;2.70;;;18.90;99.90;;;;;;5008815;28;20500;-70
2021/08/18 07:35:01;;;;;;;3.47;2.50;;;18.90;99.90;;;;;;5010603;28;20469;-68
2021/08/18 07:37:29;;;;;;;3.50;2.97;;;19.00;99.90;;;;;;5012752;28;20473;-72
2021/08/18 07:39:57;;;;;;;3.17;2.70;;;18.80;99.90;;;;;;5010845;28;20558;-70
2021/08/18 07:42:24;;;;;;;3.97;2.37;;;18.80;99.90;;;;;;5006126;28;20557;-69
2021/08/18 07:44:51;;;;;;;3.43;2.13;;;19.00;99.90;;;;;;5003570;28;20549;-71
2021/08/18 07:47:19;;;;;;;3.93;2.37;;;18.90;99.90;;;;;;5011418;28;20508;-70
2021/08/18 07:49:46;;;;;;;4.43;2.40;;;18.90;99.90;;;;;;5004266;28;20458;-71
2021/08/18 07:52:13;;;;;;;3.90;2.40;;;19.00;99.90;;;;;;5007901;28;20974;-70
2021/08/18 07:54:40;;;;;;;4.97;3.00;;;18.90;99.90;;;;;;5006136;28;20557;-71
2021/08/18 07:57:08;;;;;;;2.97;2.17;;;18.80;99.90;;;;;;5008976;28;20556;-71
2021/08/18 07:59:34;;;;;;;4.50;3.60;;;18.70;99.90;;;;;;4999959;28;20509;-70
2021/08/18 08:02:01;;;;;;;4.20;3.30;;;19.00;99.90;;;;;;5012722;28;20521;-72
2021/08/18 08:04:30;;;;;;;6.80;4.27;;;19.00;99.90;;;;;;5008927;28;20489;-71
2021/08/18 08:06:57;;;;;;;10.07;4.00;;;19.20;99.90;;;;;;5012415;28;20488;-70
2021/08/18 08:09:24;;;;;;;7.03;4.70;;;19.10;99.90;;;;;;5009123;28;20986;-70
2021/08/18 08:11:50;;;;;;;6.37;4.53;;;19.10;99.90;;;;;;5011075;28;20512;-70
2021/08/18 08:14:17;;;;;;;8.13;4.50;;;19.20;99.90;;;;;;5006972;28;20809;-70
2021/08/18 08:16:44;;;;;;;8.97;6.27;;;19.30;99.90;;;;;;4994020;28;20542;-71
2021/08/18 08:19:11;;;;;;;9.20;5.17;;;19.50;99.90;;;;;;4994269;28;20537;-70
2021/08/18 08:21:40;;;;;;;10.13;5.77;;;19.50;99.90;;;;;;5008789;28;20520;-70
2021/08/18 08:24:07;;;;;;;8.83;6.10;;;19.60;99.90;;;;;;5006848;28;20509;-72
2021/08/18 08:26:34;;;;;;;10.77;7.13;;;19.60;99.90;;;;;;5001590;28;20512;-70
2021/08/18 08:29:01;;;;;;;11.77;6.03;;;19.50;99.90;;;;;;5011226;28;20481;-70
2021/08/18 08:31:28;;;;;;;9.40;6.03;;;19.60;99.90;;;;;;5006422;28;20817;-70
2021/08/18 08:33:55;;;;;;;13.20;7.47;;;19.70;99.90;;;;;;5004619;28;20454;-71
2021/08/18 08:36:22;;;;;;;12.60;5.43;;;19.90;99.90;;;;;;5011125;28;20449;-69
2021/08/18 08:38:50;;;;;;;8.30;5.10;;;20.10;99.90;;;;;;5003518;28;20477;-70
2021/08/18 08:41:17;;;;;;;8.50;6.03;;;20.20;99.90;;;;;;5008714;28;20469;-73
2021/08/18 08:43:45;;;;;;;9.33;6.10;;;20.20;99.90;;;;;;5000632;28;20513;-66
2021/08/18 08:46:12;;;;;;;7.13;6.10;;;20.30;99.90;;;;;;5006803;28;20493;-70
2021/08/18 08:48:40;;;;;;;9.57;4.60;;;20.60;99.90;;;;;;5008762;28;20482;-71
2021/08/18 08:51:07;;;;;;;4.83;4.20;;;20.80;99.90;;;;;;5009859;28;20508;-71
2021/08/18 08:53:35;;;;;;;4.93;4.23;;;21.60;99.90;;;;;;5007557;28;20925;-70
2021/08/18 08:56:04;;;;;;;4.53;3.63;;;22.00;99.90;;;;;;4999497;28;20493;-70
2021/08/18 08:58:31;;;;;;;5.00;3.30;;;22.30;99.90;;;;;;4999634;28;20540;-70
2021/08/18 09:00:58;;;;;;;4.90;3.47;;;21.90;99.90;;;;;;4995614;28;20505;-72
2021/08/18 09:03:25;;;;;;;4.37;3.60;;;21.50;99.90;;;;;;5009790;28;20493;-71
2021/08/18 09:05:56;;;;;;;6.00;4.03;;;21.50;99.90;;;;;;5006668;28;21050;-68
2021/08/18 09:08:24;;;;;;;4.47;3.93;;;21.10;99.90;;;;;;5003547;28;20485;-71
2021/08/18 09:11:10;;;;;;;5.60;3.90;;;21.30;99.90;;;;;;5005431;28;20543;-70
2021/08/18 09:13:42;;;;;;;9.33;3.13;;;21.50;99.90;;;;;;5003854;28;20493;-70
2021/08/18 09:16:09;;;;;;;5.47;3.53;;;22.30;99.90;;;;;;5002613;28;21011;-71
2021/08/18 09:18:39;;;;;;;4.27;3.90;;;22.50;99.90;;;;;;5001630;28;20957;-68
2021/08/18 09:21:28;;;;;;;2.97;2.77;;;22.10;99.90;;;;;;5010082;28;20822;-70
2021/08/18 09:24:35;;;;;;;3.37;2.90;;;21.50;99.90;;;;;;5006794;28;21008;-69
2021/08/18 09:27:08;;;;;;;5.53;3.27;;;21.10;99.90;;;;;;5007901;28;21019;-70
2021/08/18 09:29:42;;;;;;;3.33;3.03;;;21.00;99.90;;;;;;5007742;28;20576;-71
2021/08/18 09:32:21;;;;;;;3.70;3.40;;;20.90;99.90;;;;;;5010877;28;20942;-68
2021/08/18 09:34:53;;;;;;;3.40;2.77;;;20.90;99.90;;;;;;5007623;28;21016;-67
2021/08/18 09:37:20;;;;;;;3.13;2.83;;;21.00;99.90;;;;;;5001899;28;20513;-68
2021/08/18 09:39:47;;;;;;;3.53;2.73;;;20.90;99.90;;;;;;5007122;28;20540;-67
2021/08/18 09:42:30;;;;;;;2.90;2.40;;;20.80;99.90;;;;;;5006865;28;20575;-68
2021/08/18 09:45:18;;;;;;;3.63;3.33;;;20.80;99.90;;;;;;4998281;28;20461;-67
2021/08/18 09:48:06;;;;;;;5.50;3.60;;;20.70;99.90;;;;;;4999910;28;20509;-71
2021/08/18 09:50:49;;;;;;;3.43;3.13;;;20.70;99.90;;;;;;5009190;28;20876;-68
2021/08/18 09:53:18;;;;;;;7.03;2.90;;;20.60;99.90;;;;;;5003873;28;20812;-68
2021/08/18 09:55:59;;;;;;;7.63;3.10;;;20.40;99.90;;;;;;5000864;28;20552;-68
2021/08/18 09:58:33;;;;;;;3.37;3.07;;;20.30;99.90;;;;;;5010081;28;20535;-71
2021/08/18 10:01:01;;;;;;;6.63;2.50;;;20.00;99.90;;;;;;5009919;28;20476;-71
2021/08/18 10:03:29;;;;;;;3.93;3.27;;;20.20;99.90;;;;;;5008186;28;20580;-72
2021/08/18 10:05:57;;;;;;;3.90;2.40;;;20.40;99.90;;;;;;5007791;28;20460;-70
2021/08/18 10:08:25;;;;;;;4.07;3.43;;;20.50;99.90;;;;;;5009410;28;20548;-70
2021/08/18 10:10:52;;;;;;;3.77;3.43;;;20.40;99.90;;;;;;5007988;28;20504;-70
2021/08/18 10:13:21;;;;;;;3.40;2.70;;;20.40;99.90;;;;;;5007713;28;20866;-72
2021/08/18 10:15:50;;;;;;;3.70;3.10;;;20.30;99.90;;;;;;5008219;28;20462;-70
2021/08/18 10:18:29;;;;;;;3.10;2.80;;;20.40;99.90;;;;;;5003153;28;20548;-70
2021/08/18 10:20:58;;;;;;;6.57;3.10;;;20.70;99.90;;;;;;5008349;28;20819;-69
2021/08/18 10:23:40;;;;;;;5.00;2.93;;;20.90;99.90;;;;;;5000766;28;20652;-70
2021/08/18 10:26:07;;;;;;;3.47;2.50;;;21.10;99.90;;;;;;5003230;28;20473;-67
2021/08/18 10:29:00;;;;;;;4.40;4.00;;;21.40;99.90;;;;;;5009558;28;20488;-69
2021/08/18 10:31:57;;;;;;;4.93;4.17;;;21.80;99.90;;;;;;5009829;28;20895;-70
2021/08/18 10:34:41;;;;;;;5.40;3.63;;;21.70;99.90;;;;;;5006690;28;20585;-71
2021/08/18 10:37:29;;;;;;;4.50;4.10;;;21.70;99.90;;;;;;5009573;28;20814;-70
2021/08/18 10:39:57;;;;;;;4.30;3.73;;;22.10;99.90;;;;;;5009541;28;20465;-71
2021/08/18 10:42:42;;;;;;;5.30;4.10;;;22.50;99.90;;;;;;5003971;28;20482;-69
2021/08/18 10:45:37;;;;;;;5.97;4.67;;;22.40;99.90;;;;;;5007577;28;20997;-70
2021/08/18 10:48:06;;;;;;;5.50;4.70;;;22.20;99.90;;;;;;5009574;28;20461;-70
2021/08/18 10:50:45;;;;;;;8.43;7.07;;;22.50;99.90;;;;;;5009160;28;20501;-72
2021/08/18 10:53:33;;;;;;;7.60;5.23;;;22.60;99.90;;;;;;5005963;28;20497;-70
2021/08/18 10:56:00;;;;;;;6.50;5.07;;;22.80;99.90;;;;;;5012611;28;20835;-69
2021/08/18 10:58:32;;;;;;;7.87;4.87;;;22.80;99.90;;;;;;5013534;28;20837;-73
2021/08/18 11:00:59;;;;;;;13.43;5.00;;;22.60;99.90;;;;;;5013232;28;20552;-70
2021/08/18 11:03:31;;;;;;;5.57;4.30;;;22.90;99.90;;;;;;5009220;28;20499;-72
2021/08/18 11:05:58;;;;;;;7.23;4.90;;;23.40;99.90;;;;;;5012309;28;20507;-71
2021/08/18 11:08:26;;;;;;;7.33;5.60;;;23.80;99.90;;;;;;5011017;28;20890;-71
2021/08/18 11:11:18;;;;;;;6.50;4.47;;;24.30;99.90;;;;;;5012978;28;20481;-72
2021/08/18 11:13:51;;;;;;;7.10;5.67;;;24.10;99.90;;;;;;5010189;28;20664;-73
2021/08/18 11:16:19;;;;;;;7.23;6.43;;;24.10;99.90;;;;;;5012976;28;20445;-72
2021/08/18 11:18:50;;;;;;;7.47;5.90;;;23.50;99.90;;;;;;5015034;28;20469;-70
2021/08/18 11:21:19;;;;;;;9.40;6.13;;;23.00;99.90;;;;;;5011801;28;20552;-70
2021/08/18 11:23:51;;;;;;;8.47;6.77;;;22.60;99.90;;;;;;5011101;28;20517;-73
2021/08/18 11:26:21;;;;;;;7.27;6.17;;;22.30;99.90;;;;;;5013095;28;20915;-70
2021/08/18 11:28:55;;;;;;;13.23;6.70;;;22.40;99.90;;;;;;5010256;28;20486;-70
2021/08/18 11:31:49;;;;;;;8.93;6.00;;;22.60;99.90;;;;;;5010414;28;20552;-71
2021/08/18 11:34:26;;;;;;;8.00;6.87;;;22.30;99.90;;;;;;5008505;28;20548;-71
2021/08/18 11:36:59;;;;;;;10.23;7.07;;;22.10;99.90;;;;;;5009486;28;20528;-74
2021/08/18 11:39:27;;;;;;;8.10;6.23;;;22.10;99.90;;;;;;5011244;28;20527;-70
2021/08/18 11:41:54;;;;;;;7.40;6.57;;;22.20;99.90;;;;;;5007286;28;20484;-69
2021/08/18 11:44:29;;;;;;;10.37;7.63;;;22.40;99.90;;;;;;5010887;28;20575;-71
2021/08/18 11:47:06;;;;;;;12.50;6.40;;;21.90;99.90;;;;;;5013067;28;20507;-69
2021/08/18 11:49:34;;;;;;;7.43;6.63;;;21.50;99.90;;;;;;5005755;28;20457;-69
2021/08/18 11:52:02;;;;;;;9.13;6.97;;;21.30;99.90;;;;;;5011756;28;20825;-71
2021/08/18 11:54:29;;;;;;;7.23;6.10;;;21.30;99.90;;;;;;5010568;28;20555;-69
2021/08/18 11:57:00;;;;;;;9.40;6.10;;;21.30;99.90;;;;;;5008105;28;20515;-73
2021/08/18 11:59:28;;;;;;;6.93;5.20;;;21.20;99.90;;;;;;5004152;28;20469;-73
2021/08/18 12:01:56;;;;;;;6.20;5.40;;;21.10;99.90;;;;;;5002583;28;20802;-68
2021/08/18 12:04:23;;;;;;;6.47;4.47;;;20.80;99.90;;;;;;4999697;28;20496;-70
2021/08/18 12:07:10;;;;;;;9.20;6.20;;;20.80;99.90;;;;;;5001421;28;20511;-69
2021/08/18 12:09:37;;;;;;;6.30;4.77;;;20.70;99.90;;;;;;5006654;28;20809;-70
2021/08/18 12:12:08;;;;;;;6.97;5.67;;;20.70;99.90;;;;;;5004161;28;21047;-70
2021/08/18 12:14:41;;;;;;;7.77;4.83;;;20.60;99.90;;;;;;4998149;28;21034;-70
2021/08/18 12:17:09;;;;;;;7.63;6.00;;;20.80;99.90;;;;;;5005776;28;20566;-71
2021/08/18 12:19:38;;;;;;;7.73;5.53;;;20.80;99.90;;;;;;5006503;28;20891;-71
2021/08/18 12:22:20;;;;;;;5.97;5.07;;;20.70;99.90;;;;;;5004823;28;20476;-70
2021/08/18 12:24:50;;;;;;;5.13;3.80;;;20.60;99.90;;;;;;5004448;28;20567;-71
2021/08/18 12:27:23;;;;;;;3.80;3.33;;;20.70;99.90;;;;;;5011947;28;20481;-73
2021/08/18 12:30:01;;;;;;;3.67;3.23;;;20.70;99.90;;;;;;5011528;28;20449;-70
2021/08/18 12:32:28;;;;;;;6.63;4.07;;;20.70;99.90;;;;;;5006677;28;20560;-71
2021/08/18 12:34:59;;;;;;;4.57;3.57;;;20.90;99.90;;;;;;5006790;28;20517;-74
2021/08/18 12:37:29;;;;;;;4.17;3.30;;;21.00;99.90;;;;;;5011634;28;20520;-74
2021/08/18 12:39:57;;;;;;;5.93;4.83;;;20.90;99.90;;;;;;5011173;28;20840;-71
2021/08/18 12:42:27;;;;;;;6.37;4.37;;;21.00;99.90;;;;;;5004227;28;20462;-71
2021/08/18 12:45:06;;;;;;;4.50;3.60;;;20.80;99.90;;;;;;5002786;28;21042;-70
2021/08/18 12:47:36;;;;;;;6.53;5.93;;;21.00;99.90;;;;;;5008536;28;20572;-71
2021/08/18 12:50:04;;;;;;;5.40;4.43;;;21.10;99.90;;;;;;5003119;28;20467;-73
2021/08/18 12:52:32;;;;;;;4.50;3.70;;;21.30;99.90;;;;;;5003646;28;20471;-71